sensor_id;sensor_type;location;lat;lon;timestamp;P1;durP1;ratioP1;P2;durP2;ratioP2
22863;SDS011;11599;49.882;8.680;2022-08-11T00:01:53;3.63;;;2.67;;
22863;SDS011;11599;49.882;8.680;2022-08-11T00:12:15;5.50;;;3.20;;
22863;SDS011;11599;49.882;8.680;2022-08-11T00:22:40;6.15;;;2.85;;
22863;SDS011;11599;49.882;8.680;2022-08-11T00:33:02;3.40;;;2.35;;
22863;SDS011;11599;49.882;8.680;2022-08-11T00:43:29;6.30;;;3.05;;
22863;SDS011;11599;49.882;8.680;2022-08-11T00:53:58;8.70;;;2.83;;
22863;SDS011;11599;49.882;8.680;2022-08-11T01:04:37;5.63;;;2.55;;
22863;SDS011;11599;49.882;8.680;2022-08-11T01:25:44;6.55;;;2.70;;
22863;SDS011;11599;49.882;8.680;2022-08-11T01:46:55;4.53;;;2.97;;
22863;SDS011;11599;49.882;8.680;2022-08-11T01:57:20;5.65;;;3.20;;
22863;SDS011;11599;49.882;8.680;2022-08-11T02:07:54;4.90;;;3.38;;
22863;SDS011;11599;49.882;8.680;2022-08-11T02:18:17;4.18;;;2.85;;
22863;SDS011;11599;49.882;8.680;2022-08-11T02:28:47;5.28;;;3.20;;
22863;SDS011;11599;49.882;8.680;2022-08-11T02:39:12;3.78;;;2.72;;
22863;SDS011;11599;49.882;8.680;2022-08-11T02:49:46;3.95;;;3.22;;
22863;SDS011;11599;49.882;8.680;2022-08-11T03:00:16;6.30;;;3.22;;
22863;SDS011;11599;49.882;8.680;2022-08-11T03:10:43;6.10;;;3.50;;
22863;SDS011;11599;49.882;8.680;2022-08-11T03:21:28;5.80;;;3.70;;
22863;SDS011;11599;49.882;8.680;2022-08-11T03:31:54;4.23;;;3.50;;
22863;SDS011;11599;49.882;8.680;2022-08-11T03:42:27;4.70;;;3.20;;
22863;SDS011;11599;49.882;8.680;2022-08-11T03:53:01;4.57;;;3.40;;
22863;SDS011;11599;49.882;8.680;2022-08-11T04:14:20;5.30;;;4.37;;
22863;SDS011;11599;49.882;8.680;2022-08-11T04:25:21;18.87;;;5.00;;
22863;SDS011;11599;49.882;8.680;2022-08-11T04:35:49;7.87;;;5.37;;
22863;SDS011;11599;49.882;8.680;2022-08-11T04:46:21;7.00;;;4.40;;
22863;SDS011;11599;49.882;8.680;2022-08-11T04:56:47;7.60;;;5.47;;
22863;SDS011;11599;49.882;8.680;2022-08-11T05:07:42;9.67;;;5.03;;
22863;SDS011;11599;49.882;8.680;2022-08-11T05:18:13;7.23;;;4.20;;
22863;SDS011;11599;49.882;8.680;2022-08-11T05:29:22;6.40;;;4.30;;
22863;SDS011;11599;49.882;8.680;2022-08-11T05:40:06;7.33;;;4.23;;
22863;SDS011;11599;49.882;8.680;2022-08-11T05:50:49;6.90;;;3.60;;
22863;SDS011;11599;49.882;8.680;2022-08-11T06:01:30;19.00;;;4.77;;
22863;SDS011;11599;49.882;8.680;2022-08-11T06:11:53;6.63;;;3.50;;
22863;SDS011;11599;49.882;8.680;2022-08-11T06:22:19;7.93;;;3.30;;
22863;SDS011;11599;49.882;8.680;2022-08-11T06:32:43;8.35;;;3.10;;
22863;SDS011;11599;49.882;8.680;2022-08-11T06:43:09;5.88;;;2.65;;
22863;SDS011;11599;49.882;8.680;2022-08-11T06:53:31;6.18;;;3.03;;
22863;SDS011;11599;49.882;8.680;2022-08-11T07:03:57;7.03;;;2.88;;
22863;SDS011;11599;49.882;8.680;2022-08-11T07:14:22;9.00;;;2.97;;
22863;SDS011;11599;49.882;8.680;2022-08-11T07:25:04;5.47;;;2.60;;
22863;SDS011;11599;49.882;8.680;2022-08-11T07:35:47;4.93;;;2.80;;
22863;SDS011;11599;49.882;8.680;2022-08-11T07:46:11;6.97;;;2.65;;
22863;SDS011;11599;49.882;8.680;2022-08-11T07:56:50;5.55;;;2.58;;
22863;SDS011;11599;49.882;8.680;2022-08-11T08:07:13;4.53;;;2.65;;
22863;SDS011;11599;49.882;8.680;2022-08-11T08:17:58;3.28;;;2.17;;
22863;SDS011;11599;49.882;8.680;2022-08-11T08:28:21;6.47;;;2.58;;
22863;SDS011;11599;49.882;8.680;2022-08-11T08:38:46;5.10;;;2.38;;
22863;SDS011;11599;49.882;8.680;2022-08-11T08:49:09;8.02;;;2.35;;
22863;SDS011;11599;49.882;8.680;2022-08-11T08:59:36;3.00;;;2.17;;
22863;SDS011;11599;49.882;8.680;2022-08-11T09:10:01;4.15;;;2.22;;
22863;SDS011;11599;49.882;8.680;2022-08-11T09:20:24;5.28;;;2.33;;
22863;SDS011;11599;49.882;8.680;2022-08-11T09:30:47;7.25;;;2.10;;
22863;SDS011;11599;49.882;8.680;2022-08-11T09:41:12;3.58;;;1.90;;
22863;SDS011;11599;49.882;8.680;2022-08-11T09:51:36;7.53;;;2.58;;
22863;SDS011;11599;49.882;8.680;2022-08-11T10:01:58;3.40;;;1.95;;
22863;SDS011;11599;49.882;8.680;2022-08-11T10:12:22;16.58;;;2.33;;
22863;SDS011;11599;49.882;8.680;2022-08-11T10:22:45;3.88;;;2.35;;
22863;SDS011;11599;49.882;8.680;2022-08-11T10:33:25;5.40;;;1.80;;
22863;SDS011;11599;49.882;8.680;2022-08-11T10:44:05;4.43;;;2.03;;
22863;SDS011;11599;49.882;8.680;2022-08-11T10:54:29;2.95;;;2.10;;
22863;SDS011;11599;49.882;8.680;2022-08-11T11:05:11;4.13;;;2.05;;
22863;SDS011;11599;49.882;8.680;2022-08-11T11:15:36;5.43;;;2.40;;
22863;SDS011;11599;49.882;8.680;2022-08-11T11:26:26;9.32;;;2.33;;
22863;SDS011;11599;49.882;8.680;2022-08-11T11:36:53;4.20;;;2.40;;
22863;SDS011;11599;49.882;8.680;2022-08-11T11:47:15;6.00;;;2.58;;
22863;SDS011;11599;49.882;8.680;2022-08-11T11:57:40;3.88;;;2.60;;
22863;SDS011;11599;49.882;8.680;2022-08-11T12:08:19;3.35;;;2.28;;
22863;SDS011;11599;49.882;8.680;2022-08-11T12:18:42;3.75;;;2.30;;
22863;SDS011;11599;49.882;8.680;2022-08-11T12:29:09;4.68;;;2.40;;
22863;SDS011;11599;49.882;8.680;2022-08-11T12:39:33;6.63;;;2.25;;
22863;SDS011;11599;49.882;8.680;2022-08-11T12:50:14;3.80;;;2.20;;
22863;SDS011;11599;49.882;8.680;2022-08-11T13:00:54;4.43;;;1.92;;
22863;SDS011;11599;49.882;8.680;2022-08-11T13:11:34;6.47;;;2.45;;
22863;SDS011;11599;49.882;8.680;2022-08-11T13:22:15;5.10;;;2.13;;
22863;SDS011;11599;49.882;8.680;2022-08-11T13:32:38;4.88;;;2.10;;
22863;SDS011;11599;49.882;8.680;2022-08-11T13:43:01;6.95;;;2.50;;
22863;SDS011;11599;49.882;8.680;2022-08-11T13:53:23;6.78;;;2.20;;
22863;SDS011;11599;49.882;8.680;2022-08-11T14:03:46;2.20;;;1.90;;
22863;SDS011;11599;49.882;8.680;2022-08-11T14:14:09;6.35;;;2.00;;
22863;SDS011;11599;49.882;8.680;2022-08-11T14:24:35;4.35;;;1.90;;
22863;SDS011;11599;49.882;8.680;2022-08-11T14:34:57;5.10;;;2.10;;
22863;SDS011;11599;49.882;8.680;2022-08-11T14:45:20;2.97;;;1.98;;
22863;SDS011;11599;49.882;8.680;2022-08-11T14:55:55;2.58;;;1.95;;
22863;SDS011;11599;49.882;8.680;2022-08-11T15:06:35;4.90;;;1.90;;
22863;SDS011;11599;49.882;8.680;2022-08-11T15:16:57;3.10;;;1.88;;
22863;SDS011;11599;49.882;8.680;2022-08-11T15:27:29;5.93;;;1.70;;
22863;SDS011;11599;49.882;8.680;2022-08-11T15:38:08;3.65;;;1.90;;
22863;SDS011;11599;49.882;8.680;2022-08-11T15:48:37;3.55;;;2.10;;
22863;SDS011;11599;49.882;8.680;2022-08-11T15:59:00;2.67;;;1.90;;
22863;SDS011;11599;49.882;8.680;2022-08-11T16:09:41;5.43;;;2.00;;
22863;SDS011;11599;49.882;8.680;2022-08-11T16:20:05;6.97;;;2.08;;
22863;SDS011;11599;49.882;8.680;2022-08-11T16:30:30;4.18;;;1.90;;
22863;SDS011;11599;49.882;8.680;2022-08-11T16:40:52;4.75;;;2.10;;
22863;SDS011;11599;49.882;8.680;2022-08-11T16:51:15;3.83;;;1.90;;
22863;SDS011;11599;49.882;8.680;2022-08-11T17:01:40;1.70;;;1.60;;
22863;SDS011;11599;49.882;8.680;2022-08-11T17:12:04;7.90;;;2.10;;
22863;SDS011;11599;49.882;8.680;2022-08-11T17:22:44;4.75;;;1.88;;
22863;SDS011;11599;49.882;8.680;2022-08-11T17:33:24;4.55;;;1.95;;
22863;SDS011;11599;49.882;8.680;2022-08-11T17:44:03;8.65;;;2.03;;
22863;SDS011;11599;49.882;8.680;2022-08-11T17:54:44;5.15;;;2.03;;
22863;SDS011;11599;49.882;8.680;2022-08-11T18:05:23;6.72;;;2.20;;
22863;SDS011;11599;49.882;8.680;2022-08-11T18:15:47;2.50;;;1.55;;
22863;SDS011;11599;49.882;8.680;2022-08-11T18:26:26;3.53;;;1.60;;
22863;SDS011;11599;49.882;8.680;2022-08-11T18:37:09;4.03;;;1.98;;
22863;SDS011;11599;49.882;8.680;2022-08-11T18:47:49;2.67;;;2.17;;
22863;SDS011;11599;49.882;8.680;2022-08-11T18:58:30;9.68;;;2.20;;
22863;SDS011;11599;49.882;8.680;2022-08-11T19:09:11;8.70;;;2.30;;
22863;SDS011;11599;49.882;8.680;2022-08-11T19:19:52;6.78;;;1.95;;
22863;SDS011;11599;49.882;8.680;2022-08-11T19:30:31;8.80;;;2.00;;
22863;SDS011;11599;49.882;8.680;2022-08-11T19:41:12;3.13;;;1.92;;
22863;SDS011;11599;49.882;8.680;2022-08-11T19:51:51;4.55;;;1.95;;
22863;SDS011;11599;49.882;8.680;2022-08-11T20:02:32;3.05;;;2.15;;
22863;SDS011;11599;49.882;8.680;2022-08-11T20:13:11;6.55;;;2.10;;
22863;SDS011;11599;49.882;8.680;2022-08-11T20:23:52;3.75;;;2.25;;
22863;SDS011;11599;49.882;8.680;2022-08-11T20:34:32;3.05;;;1.90;;
22863;SDS011;11599;49.882;8.680;2022-08-11T20:45:15;4.32;;;2.10;;
22863;SDS011;11599;49.882;8.680;2022-08-11T20:55:54;3.00;;;2.00;;
22863;SDS011;11599;49.882;8.680;2022-08-11T21:06:35;4.55;;;2.30;;
22863;SDS011;11599;49.882;8.680;2022-08-11T21:17:14;4.47;;;2.30;;
22863;SDS011;11599;49.882;8.680;2022-08-11T21:27:56;6.43;;;2.40;;
22863;SDS011;11599;49.882;8.680;2022-08-11T21:38:36;5.55;;;2.38;;
22863;SDS011;11599;49.882;8.680;2022-08-11T21:49:17;2.92;;;2.40;;
22863;SDS011;11599;49.882;8.680;2022-08-11T21:59:58;5.85;;;2.83;;
22863;SDS011;11599;49.882;8.680;2022-08-11T22:10:38;8.93;;;2.80;;
22863;SDS011;11599;49.882;8.680;2022-08-11T22:21:18;9.50;;;2.55;;
22863;SDS011;11599;49.882;8.680;2022-08-11T22:31:58;6.05;;;2.70;;
22863;SDS011;11599;49.882;8.680;2022-08-11T22:42:38;7.95;;;2.40;;
22863;SDS011;11599;49.882;8.680;2022-08-11T22:53:19;4.75;;;2.50;;
22863;SDS011;11599;49.882;8.680;2022-08-11T23:03:59;8.07;;;2.65;;
22863;SDS011;11599;49.882;8.680;2022-08-11T23:14:39;5.88;;;2.70;;
22863;SDS011;11599;49.882;8.680;2022-08-11T23:25:18;6.28;;;2.97;;
22863;SDS011;11599;49.882;8.680;2022-08-11T23:35:59;4.35;;;2.38;;
22863;SDS011;11599;49.882;8.680;2022-08-11T23:46:38;3.97;;;2.67;;
22863;SDS011;11599;49.882;8.680;2022-08-11T23:57:19;10.05;;;3.00;;
